sensor_id;sensor_type;location;lat;lon;timestamp;P1;durP1;ratioP1;P2;durP2;ratioP2
47089;SDS011;32840;52.516;13.294;2022-08-27T00:01:13;14.75;;;11.18;;
47089;SDS011;32840;52.516;13.294;2022-08-27T00:04:01;11.77;;;10.18;;
47089;SDS011;32840;52.516;13.294;2022-08-27T00:06:46;11.82;;;9.77;;
47089;SDS011;32840;52.516;13.294;2022-08-27T00:09:31;11.52;;;10.25;;
47089;SDS011;32840;52.516;13.294;2022-08-27T00:12:17;16.05;;;11.00;;
47089;SDS011;32840;52.516;13.294;2022-08-27T00:15:02;12.48;;;9.70;;
47089;SDS011;32840;52.516;13.294;2022-08-27T00:17:48;13.18;;;10.07;;
47089;SDS011;32840;52.516;13.294;2022-08-27T00:20:33;12.20;;;10.65;;
47089;SDS011;32840;52.516;13.294;2022-08-27T00:23:18;16.40;;;10.80;;
47089;SDS011;32840;52.516;13.294;2022-08-27T00:26:03;15.77;;;11.45;;
47089;SDS011;32840;52.516;13.294;2022-08-27T00:28:50;13.65;;;9.18;;
47089;SDS011;32840;52.516;13.294;2022-08-27T00:31:34;15.77;;;10.85;;
47089;SDS011;32840;52.516;13.294;2022-08-27T00:34:20;15.23;;;11.13;;
47089;SDS011;32840;52.516;13.294;2022-08-27T00:37:06;14.05;;;10.18;;
47089;SDS011;32840;52.516;13.294;2022-08-27T00:39:51;13.07;;;9.70;;
47089;SDS011;32840;52.516;13.294;2022-08-27T00:42:36;12.68;;;10.30;;
47089;SDS011;32840;52.516;13.294;2022-08-27T00:45:22;12.88;;;10.10;;
47089;SDS011;32840;52.516;13.294;2022-08-27T00:48:10;10.88;;;9.70;;
47089;SDS011;32840;52.516;13.294;2022-08-27T00:50:58;11.97;;;10.30;;
47089;SDS011;32840;52.516;13.294;2022-08-27T00:53:43;14.30;;;10.48;;
47089;SDS011;32840;52.516;13.294;2022-08-27T00:56:30;14.50;;;10.52;;
47089;SDS011;32840;52.516;13.294;2022-08-27T00:59:18;12.73;;;11.20;;
47089;SDS011;32840;52.516;13.294;2022-08-27T01:02:06;11.77;;;10.32;;
47089;SDS011;32840;52.516;13.294;2022-08-27T01:05:07;16.00;;;10.85;;
47089;SDS011;32840;52.516;13.294;2022-08-27T01:07:57;15.73;;;10.85;;
47089;SDS011;32840;52.516;13.294;2022-08-27T01:10:49;13.32;;;10.68;;
47089;SDS011;32840;52.516;13.294;2022-08-27T01:13:36;13.60;;;9.82;;
47089;SDS011;32840;52.516;13.294;2022-08-27T01:16:23;14.93;;;10.45;;
47089;SDS011;32840;52.516;13.294;2022-08-27T01:19:30;14.63;;;10.95;;
47089;SDS011;32840;52.516;13.294;2022-08-27T01:22:37;12.35;;;11.00;;
47089;SDS011;32840;52.516;13.294;2022-08-27T01:25:39;12.85;;;11.05;;
47089;SDS011;32840;52.516;13.294;2022-08-27T01:28:25;13.95;;;11.18;;
47089;SDS011;32840;52.516;13.294;2022-08-27T01:31:12;14.27;;;10.55;;
47089;SDS011;32840;52.516;13.294;2022-08-27T01:34:02;14.23;;;11.15;;
47089;SDS011;32840;52.516;13.294;2022-08-27T01:39:33;15.23;;;11.75;;
47089;SDS011;32840;52.516;13.294;2022-08-27T01:42:30;16.73;;;11.43;;
47089;SDS011;32840;52.516;13.294;2022-08-27T01:45:20;17.10;;;12.40;;
47089;SDS011;32840;52.516;13.294;2022-08-27T01:48:09;14.93;;;12.73;;
47089;SDS011;32840;52.516;13.294;2022-08-27T01:50:54;16.77;;;12.50;;
47089;SDS011;32840;52.516;13.294;2022-08-27T01:53:39;18.73;;;12.23;;
47089;SDS011;32840;52.516;13.294;2022-08-27T01:56:24;18.40;;;13.68;;
47089;SDS011;32840;52.516;13.294;2022-08-27T01:59:09;17.08;;;14.30;;
47089;SDS011;32840;52.516;13.294;2022-08-27T02:01:55;21.30;;;14.23;;
47089;SDS011;32840;52.516;13.294;2022-08-27T02:04:40;15.57;;;13.07;;
47089;SDS011;32840;52.516;13.294;2022-08-27T02:07:25;18.27;;;13.50;;
47089;SDS011;32840;52.516;13.294;2022-08-27T02:10:10;18.33;;;13.57;;
47089;SDS011;32840;52.516;13.294;2022-08-27T02:12:59;20.20;;;14.13;;
47089;SDS011;32840;52.516;13.294;2022-08-27T02:15:43;18.98;;;13.98;;
47089;SDS011;32840;52.516;13.294;2022-08-27T02:18:29;20.17;;;12.98;;
47089;SDS011;32840;52.516;13.294;2022-08-27T02:21:13;21.83;;;13.38;;
47089;SDS011;32840;52.516;13.294;2022-08-27T02:23:59;22.10;;;15.40;;
47089;SDS011;32840;52.516;13.294;2022-08-27T02:26:43;20.90;;;15.25;;
47089;SDS011;32840;52.516;13.294;2022-08-27T02:29:28;21.25;;;14.45;;
47089;SDS011;32840;52.516;13.294;2022-08-27T02:32:13;21.77;;;14.70;;
47089;SDS011;32840;52.516;13.294;2022-08-27T02:34:59;21.50;;;15.90;;
47089;SDS011;32840;52.516;13.294;2022-08-27T02:37:45;21.42;;;16.42;;
47089;SDS011;32840;52.516;13.294;2022-08-27T02:40:30;28.50;;;17.85;;
47089;SDS011;32840;52.516;13.294;2022-08-27T02:43:15;27.50;;;18.10;;
47089;SDS011;32840;52.516;13.294;2022-08-27T02:46:00;20.65;;;16.58;;
47089;SDS011;32840;52.516;13.294;2022-08-27T02:48:45;19.65;;;16.13;;
47089;SDS011;32840;52.516;13.294;2022-08-27T02:51:30;25.83;;;17.73;;
47089;SDS011;32840;52.516;13.294;2022-08-27T02:54:15;24.77;;;18.15;;
47089;SDS011;32840;52.516;13.294;2022-08-27T02:57:00;27.83;;;18.92;;
47089;SDS011;32840;52.516;13.294;2022-08-27T02:59:45;33.33;;;19.50;;
47089;SDS011;32840;52.516;13.294;2022-08-27T03:02:31;31.52;;;19.85;;
47089;SDS011;32840;52.516;13.294;2022-08-27T03:05:16;27.55;;;19.52;;
47089;SDS011;32840;52.516;13.294;2022-08-27T03:08:02;29.27;;;21.95;;
47089;SDS011;32840;52.516;13.294;2022-08-27T03:10:48;32.25;;;23.45;;
47089;SDS011;32840;52.516;13.294;2022-08-27T03:13:36;28.00;;;20.20;;
47089;SDS011;32840;52.516;13.294;2022-08-27T03:16:22;28.27;;;18.83;;
47089;SDS011;32840;52.516;13.294;2022-08-27T03:19:07;26.13;;;20.10;;
47089;SDS011;32840;52.516;13.294;2022-08-27T03:21:52;33.97;;;20.77;;
47089;SDS011;32840;52.516;13.294;2022-08-27T03:24:37;32.60;;;20.55;;
47089;SDS011;32840;52.516;13.294;2022-08-27T03:27:24;32.60;;;22.25;;
47089;SDS011;32840;52.516;13.294;2022-08-27T03:30:10;35.72;;;22.98;;
47089;SDS011;32840;52.516;13.294;2022-08-27T03:32:59;32.72;;;22.45;;
47089;SDS011;32840;52.516;13.294;2022-08-27T03:35:44;32.65;;;23.35;;
47089;SDS011;32840;52.516;13.294;2022-08-27T03:38:30;28.70;;;22.15;;
47089;SDS011;32840;52.516;13.294;2022-08-27T03:41:15;28.58;;;20.30;;
47089;SDS011;32840;52.516;13.294;2022-08-27T03:44:01;28.45;;;21.58;;
47089;SDS011;32840;52.516;13.294;2022-08-27T03:46:46;33.45;;;23.02;;
47089;SDS011;32840;52.516;13.294;2022-08-27T03:49:31;30.85;;;23.52;;
47089;SDS011;32840;52.516;13.294;2022-08-27T03:52:16;32.97;;;23.60;;
47089;SDS011;32840;52.516;13.294;2022-08-27T03:55:03;29.77;;;22.83;;
47089;SDS011;32840;52.516;13.294;2022-08-27T03:57:50;32.45;;;23.45;;
47089;SDS011;32840;52.516;13.294;2022-08-27T04:00:36;28.42;;;21.40;;
47089;SDS011;32840;52.516;13.294;2022-08-27T04:03:21;28.33;;;20.15;;
47089;SDS011;32840;52.516;13.294;2022-08-27T04:06:05;28.13;;;20.90;;
47089;SDS011;32840;52.516;13.294;2022-08-27T04:08:50;26.17;;;19.42;;
47089;SDS011;32840;52.516;13.294;2022-08-27T04:11:35;27.40;;;20.33;;
47089;SDS011;32840;52.516;13.294;2022-08-27T04:14:20;24.80;;;17.95;;
47089;SDS011;32840;52.516;13.294;2022-08-27T04:17:05;23.77;;;17.60;;
47089;SDS011;32840;52.516;13.294;2022-08-27T04:19:50;25.02;;;18.67;;
47089;SDS011;32840;52.516;13.294;2022-08-27T04:22:35;27.38;;;20.65;;
47089;SDS011;32840;52.516;13.294;2022-08-27T04:25:20;31.88;;;23.17;;
47089;SDS011;32840;52.516;13.294;2022-08-27T04:28:05;30.35;;;21.17;;
47089;SDS011;32840;52.516;13.294;2022-08-27T04:30:51;27.45;;;18.83;;
47089;SDS011;32840;52.516;13.294;2022-08-27T04:33:35;27.55;;;19.55;;
47089;SDS011;32840;52.516;13.294;2022-08-27T04:36:20;28.52;;;20.25;;
47089;SDS011;32840;52.516;13.294;2022-08-27T04:39:05;26.15;;;19.17;;
47089;SDS011;32840;52.516;13.294;2022-08-27T04:41:51;25.33;;;19.17;;
47089;SDS011;32840;52.516;13.294;2022-08-27T04:44:38;26.10;;;18.55;;
47089;SDS011;32840;52.516;13.294;2022-08-27T04:47:22;25.65;;;18.67;;
47089;SDS011;32840;52.516;13.294;2022-08-27T04:50:07;24.65;;;18.75;;
47089;SDS011;32840;52.516;13.294;2022-08-27T04:52:52;26.00;;;19.70;;
47089;SDS011;32840;52.516;13.294;2022-08-27T04:55:41;27.05;;;20.30;;
47089;SDS011;32840;52.516;13.294;2022-08-27T04:58:27;28.50;;;19.60;;
47089;SDS011;32840;52.516;13.294;2022-08-27T05:01:16;23.73;;;19.02;;
47089;SDS011;32840;52.516;13.294;2022-08-27T05:04:12;24.60;;;18.65;;
47089;SDS011;32840;52.516;13.294;2022-08-27T05:06:58;26.13;;;16.33;;
47089;SDS011;32840;52.516;13.294;2022-08-27T05:09:43;20.88;;;16.75;;
47089;SDS011;32840;52.516;13.294;2022-08-27T05:12:28;24.20;;;17.73;;
47089;SDS011;32840;52.516;13.294;2022-08-27T05:15:13;21.10;;;16.00;;
47089;SDS011;32840;52.516;13.294;2022-08-27T05:17:58;18.77;;;14.90;;
47089;SDS011;32840;52.516;13.294;2022-08-27T05:20:44;22.15;;;16.85;;
47089;SDS011;32840;52.516;13.294;2022-08-27T05:23:30;19.75;;;15.57;;
47089;SDS011;32840;52.516;13.294;2022-08-27T05:26:15;25.85;;;17.38;;
47089;SDS011;32840;52.516;13.294;2022-08-27T05:29:01;20.27;;;16.08;;
47089;SDS011;32840;52.516;13.294;2022-08-27T05:31:47;20.00;;;14.95;;
47089;SDS011;32840;52.516;13.294;2022-08-27T05:34:32;21.67;;;16.55;;
47089;SDS011;32840;52.516;13.294;2022-08-27T05:37:17;25.17;;;18.45;;
47089;SDS011;32840;52.516;13.294;2022-08-27T05:40:02;20.33;;;15.25;;
47089;SDS011;32840;52.516;13.294;2022-08-27T05:42:48;25.13;;;17.20;;
47089;SDS011;32840;52.516;13.294;2022-08-27T05:45:38;18.90;;;15.32;;
47089;SDS011;32840;52.516;13.294;2022-08-27T05:48:25;20.55;;;16.20;;
47089;SDS011;32840;52.516;13.294;2022-08-27T05:51:20;20.15;;;14.90;;
47089;SDS011;32840;52.516;13.294;2022-08-27T05:54:11;18.75;;;15.50;;
47089;SDS011;32840;52.516;13.294;2022-08-27T05:56:59;21.83;;;17.73;;
47089;SDS011;32840;52.516;13.294;2022-08-27T05:59:44;21.85;;;16.13;;
47089;SDS011;32840;52.516;13.294;2022-08-27T06:02:47;21.08;;;15.38;;
47089;SDS011;32840;52.516;13.294;2022-08-27T06:05:32;20.27;;;14.98;;
47089;SDS011;32840;52.516;13.294;2022-08-27T06:08:17;19.77;;;16.00;;
47089;SDS011;32840;52.516;13.294;2022-08-27T06:11:02;18.85;;;15.55;;
47089;SDS011;32840;52.516;13.294;2022-08-27T06:13:49;21.00;;;15.70;;
47089;SDS011;32840;52.516;13.294;2022-08-27T06:16:35;21.95;;;15.93;;
47089;SDS011;32840;52.516;13.294;2022-08-27T06:19:21;18.75;;;14.80;;
47089;SDS011;32840;52.516;13.294;2022-08-27T06:22:07;15.70;;;13.32;;
47089;SDS011;32840;52.516;13.294;2022-08-27T06:24:52;15.80;;;12.38;;
47089;SDS011;32840;52.516;13.294;2022-08-27T06:27:37;18.02;;;12.90;;
47089;SDS011;32840;52.516;13.294;2022-08-27T06:30:22;15.90;;;11.65;;
47089;SDS011;32840;52.516;13.294;2022-08-27T06:33:08;16.27;;;11.65;;
47089;SDS011;32840;52.516;13.294;2022-08-27T06:35:52;15.18;;;10.32;;
47089;SDS011;32840;52.516;13.294;2022-08-27T06:38:38;12.15;;;10.55;;
47089;SDS011;32840;52.516;13.294;2022-08-27T06:41:24;13.07;;;10.15;;
47089;SDS011;32840;52.516;13.294;2022-08-27T06:44:09;13.20;;;10.32;;
47089;SDS011;32840;52.516;13.294;2022-08-27T06:46:55;12.68;;;9.20;;
47089;SDS011;32840;52.516;13.294;2022-08-27T06:49:40;12.88;;;9.75;;
47089;SDS011;32840;52.516;13.294;2022-08-27T06:52:25;12.48;;;9.13;;
47089;SDS011;32840;52.516;13.294;2022-08-27T06:55:10;9.95;;;8.20;;
47089;SDS011;32840;52.516;13.294;2022-08-27T06:57:55;11.18;;;8.27;;
47089;SDS011;32840;52.516;13.294;2022-08-27T07:00:40;11.30;;;8.80;;
47089;SDS011;32840;52.516;13.294;2022-08-27T07:03:25;10.23;;;8.75;;
47089;SDS011;32840;52.516;13.294;2022-08-27T07:06:11;13.38;;;7.90;;
47089;SDS011;32840;52.516;13.294;2022-08-27T07:08:57;10.88;;;8.10;;
47089;SDS011;32840;52.516;13.294;2022-08-27T07:11:43;10.70;;;8.90;;
47089;SDS011;32840;52.516;13.294;2022-08-27T07:14:28;10.55;;;7.57;;
47089;SDS011;32840;52.516;13.294;2022-08-27T07:17:13;10.85;;;8.82;;
47089;SDS011;32840;52.516;13.294;2022-08-27T07:20:00;11.20;;;9.45;;
47089;SDS011;32840;52.516;13.294;2022-08-27T07:22:45;11.10;;;9.20;;
47089;SDS011;32840;52.516;13.294;2022-08-27T07:25:31;11.23;;;8.82;;
47089;SDS011;32840;52.516;13.294;2022-08-27T07:28:16;10.07;;;8.30;;
47089;SDS011;32840;52.516;13.294;2022-08-27T07:31:01;10.98;;;7.82;;
47089;SDS011;32840;52.516;13.294;2022-08-27T07:33:46;17.00;;;9.75;;
47089;SDS011;32840;52.516;13.294;2022-08-27T07:36:31;12.02;;;9.30;;
47089;SDS011;32840;52.516;13.294;2022-08-27T07:39:17;11.15;;;9.52;;
47089;SDS011;32840;52.516;13.294;2022-08-27T07:42:02;11.18;;;8.70;;
47089;SDS011;32840;52.516;13.294;2022-08-27T07:45:06;11.93;;;8.98;;
47089;SDS011;32840;52.516;13.294;2022-08-27T07:47:51;13.98;;;10.38;;
47089;SDS011;32840;52.516;13.294;2022-08-27T07:50:36;13.30;;;11.15;;
47089;SDS011;32840;52.516;13.294;2022-08-27T07:53:21;17.23;;;9.68;;
47089;SDS011;32840;52.516;13.294;2022-08-27T07:56:07;14.52;;;10.20;;
47089;SDS011;32840;52.516;13.294;2022-08-27T07:58:52;14.20;;;11.10;;
47089;SDS011;32840;52.516;13.294;2022-08-27T08:01:37;12.27;;;10.48;;
47089;SDS011;32840;52.516;13.294;2022-08-27T08:04:22;14.20;;;10.70;;
47089;SDS011;32840;52.516;13.294;2022-08-27T08:07:07;15.70;;;12.55;;
47089;SDS011;32840;52.516;13.294;2022-08-27T08:09:53;13.02;;;9.90;;
47089;SDS011;32840;52.516;13.294;2022-08-27T08:12:38;18.30;;;11.50;;
47089;SDS011;32840;52.516;13.294;2022-08-27T08:15:23;16.40;;;11.43;;
47089;SDS011;32840;52.516;13.294;2022-08-27T08:18:09;14.77;;;11.90;;
47089;SDS011;32840;52.516;13.294;2022-08-27T08:21:12;15.57;;;10.45;;
47089;SDS011;32840;52.516;13.294;2022-08-27T08:23:58;18.00;;;11.70;;
47089;SDS011;32840;52.516;13.294;2022-08-27T08:26:44;15.88;;;10.27;;
47089;SDS011;32840;52.516;13.294;2022-08-27T08:29:29;17.42;;;11.02;;
47089;SDS011;32840;52.516;13.294;2022-08-27T08:32:14;14.15;;;11.63;;
47089;SDS011;32840;52.516;13.294;2022-08-27T08:35:00;18.60;;;11.60;;
47089;SDS011;32840;52.516;13.294;2022-08-27T08:37:45;15.93;;;10.45;;
47089;SDS011;32840;52.516;13.294;2022-08-27T08:40:32;13.18;;;9.90;;
47089;SDS011;32840;52.516;13.294;2022-08-27T08:43:23;13.30;;;9.90;;
47089;SDS011;32840;52.516;13.294;2022-08-27T08:55:39;19.13;;;14.27;;
47089;SDS011;32840;52.516;13.294;2022-08-27T08:58:32;23.00;;;18.65;;
47089;SDS011;32840;52.516;13.294;2022-08-27T09:01:41;14.13;;;10.32;;
47089;SDS011;32840;52.516;13.294;2022-08-27T09:04:28;14.45;;;10.82;;
47089;SDS011;32840;52.516;13.294;2022-08-27T09:07:18;13.40;;;10.82;;
47089;SDS011;32840;52.516;13.294;2022-08-27T09:10:27;13.38;;;10.13;;
47089;SDS011;32840;52.516;13.294;2022-08-27T09:13:21;16.27;;;10.07;;
47089;SDS011;32840;52.516;13.294;2022-08-27T09:16:10;11.27;;;9.35;;
47089;SDS011;32840;52.516;13.294;2022-08-27T09:18:55;12.38;;;11.15;;
47089;SDS011;32840;52.516;13.294;2022-08-27T09:24:39;13.20;;;9.25;;
47089;SDS011;32840;52.516;13.294;2022-08-27T09:27:49;13.23;;;10.02;;
47089;SDS011;32840;52.516;13.294;2022-08-27T09:30:40;16.38;;;10.80;;
47089;SDS011;32840;52.516;13.294;2022-08-27T09:36:12;12.77;;;11.45;;
47089;SDS011;32840;52.516;13.294;2022-08-27T09:38:59;14.13;;;11.63;;
47089;SDS011;32840;52.516;13.294;2022-08-27T09:41:48;13.52;;;11.18;;
47089;SDS011;32840;52.516;13.294;2022-08-27T09:44:43;18.73;;;11.60;;
47089;SDS011;32840;52.516;13.294;2022-08-27T09:47:39;16.05;;;10.98;;
47089;SDS011;32840;52.516;13.294;2022-08-27T09:50:37;16.70;;;9.82;;
47089;SDS011;32840;52.516;13.294;2022-08-27T09:59:23;15.75;;;11.95;;
47089;SDS011;32840;52.516;13.294;2022-08-27T10:02:15;16.27;;;10.38;;
47089;SDS011;32840;52.516;13.294;2022-08-27T10:05:02;15.45;;;10.20;;
47089;SDS011;32840;52.516;13.294;2022-08-27T10:08:00;11.02;;;9.68;;
47089;SDS011;32840;52.516;13.294;2022-08-27T10:13:48;11.63;;;8.68;;
47089;SDS011;32840;52.516;13.294;2022-08-27T10:16:59;12.30;;;9.23;;
47089;SDS011;32840;52.516;13.294;2022-08-27T10:23:19;11.40;;;8.15;;
47089;SDS011;32840;52.516;13.294;2022-08-27T10:26:23;15.15;;;9.63;;
47089;SDS011;32840;52.516;13.294;2022-08-27T10:29:35;13.30;;;8.63;;
47089;SDS011;32840;52.516;13.294;2022-08-27T10:35:19;11.30;;;8.20;;
47089;SDS011;32840;52.516;13.294;2022-08-27T10:41:17;12.90;;;8.18;;
47089;SDS011;32840;52.516;13.294;2022-08-27T10:47:33;21.50;;;9.27;;
47089;SDS011;32840;52.516;13.294;2022-08-27T10:50:27;12.15;;;7.18;;
47089;SDS011;32840;52.516;13.294;2022-08-27T10:56:40;12.50;;;7.35;;
47089;SDS011;32840;52.516;13.294;2022-08-27T10:59:39;9.52;;;6.90;;
47089;SDS011;32840;52.516;13.294;2022-08-27T11:02:38;9.25;;;7.07;;
47089;SDS011;32840;52.516;13.294;2022-08-27T11:05:34;16.42;;;8.65;;
47089;SDS011;32840;52.516;13.294;2022-08-27T11:08:27;8.68;;;7.78;;
47089;SDS011;32840;52.516;13.294;2022-08-27T11:11:30;10.70;;;7.25;;
47089;SDS011;32840;52.516;13.294;2022-08-27T11:14:27;14.67;;;7.33;;
47089;SDS011;32840;52.516;13.294;2022-08-27T11:17:14;12.65;;;7.43;;
47089;SDS011;32840;52.516;13.294;2022-08-27T11:23:16;13.57;;;8.20;;
47089;SDS011;32840;52.516;13.294;2022-08-27T11:26:05;9.57;;;7.32;;
47089;SDS011;32840;52.516;13.294;2022-08-27T11:28:51;8.45;;;6.43;;
47089;SDS011;32840;52.516;13.294;2022-08-27T11:31:46;10.90;;;7.28;;
47089;SDS011;32840;52.516;13.294;2022-08-27T11:34:56;14.20;;;9.75;;
47089;SDS011;32840;52.516;13.294;2022-08-27T11:43:49;10.73;;;6.90;;
47089;SDS011;32840;52.516;13.294;2022-08-27T11:46:41;8.68;;;5.82;;
47089;SDS011;32840;52.516;13.294;2022-08-27T11:49:31;9.00;;;6.53;;
47089;SDS011;32840;52.516;13.294;2022-08-27T11:53:10;12.43;;;9.68;;
47089;SDS011;32840;52.516;13.294;2022-08-27T11:55:45;8.57;;;6.45;;
47089;SDS011;32840;52.516;13.294;2022-08-27T11:58:30;9.35;;;6.72;;
47089;SDS011;32840;52.516;13.294;2022-08-27T12:01:28;13.88;;;7.53;;
47089;SDS011;32840;52.516;13.294;2022-08-27T12:04:23;7.88;;;6.80;;
47089;SDS011;32840;52.516;13.294;2022-08-27T12:07:25;8.48;;;6.13;;
47089;SDS011;32840;52.516;13.294;2022-08-27T12:10:19;8.85;;;6.60;;
47089;SDS011;32840;52.516;13.294;2022-08-27T12:13:16;8.07;;;6.80;;
47089;SDS011;32840;52.516;13.294;2022-08-27T12:16:19;13.88;;;7.35;;
47089;SDS011;32840;52.516;13.294;2022-08-27T12:19:26;9.50;;;6.40;;
47089;SDS011;32840;52.516;13.294;2022-08-27T12:28:37;9.90;;;6.20;;
47089;SDS011;32840;52.516;13.294;2022-08-27T12:31:22;9.82;;;7.95;;
47089;SDS011;32840;52.516;13.294;2022-08-27T12:34:12;7.50;;;5.85;;
47089;SDS011;32840;52.516;13.294;2022-08-27T12:37:00;10.73;;;6.72;;
47089;SDS011;32840;52.516;13.294;2022-08-27T12:39:46;7.45;;;5.97;;
47089;SDS011;32840;52.516;13.294;2022-08-27T12:42:32;7.88;;;5.57;;
47089;SDS011;32840;52.516;13.294;2022-08-27T12:45:22;8.50;;;6.05;;
47089;SDS011;32840;52.516;13.294;2022-08-27T12:48:09;7.13;;;5.82;;
47089;SDS011;32840;52.516;13.294;2022-08-27T12:50:55;10.70;;;7.68;;
47089;SDS011;32840;52.516;13.294;2022-08-27T12:53:46;8.48;;;7.07;;
47089;SDS011;32840;52.516;13.294;2022-08-27T13:00:13;10.85;;;6.03;;
47089;SDS011;32840;52.516;13.294;2022-08-27T13:03:19;8.38;;;6.00;;
47089;SDS011;32840;52.516;13.294;2022-08-27T13:06:16;11.05;;;8.40;;
47089;SDS011;32840;52.516;13.294;2022-08-27T13:09:03;14.18;;;11.02;;
47089;SDS011;32840;52.516;13.294;2022-08-27T13:11:49;9.55;;;6.05;;
47089;SDS011;32840;52.516;13.294;2022-08-27T13:14:39;9.97;;;6.17;;
47089;SDS011;32840;52.516;13.294;2022-08-27T13:17:34;9.63;;;6.15;;
47089;SDS011;32840;52.516;13.294;2022-08-27T13:20:22;11.00;;;5.70;;
47089;SDS011;32840;52.516;13.294;2022-08-27T13:23:12;7.95;;;5.68;;
47089;SDS011;32840;52.516;13.294;2022-08-27T13:26:04;10.63;;;4.78;;
47089;SDS011;32840;52.516;13.294;2022-08-27T13:28:53;7.93;;;5.60;;
47089;SDS011;32840;52.516;13.294;2022-08-27T13:31:40;13.43;;;7.60;;
47089;SDS011;32840;52.516;13.294;2022-08-27T13:34:26;10.07;;;5.88;;
47089;SDS011;32840;52.516;13.294;2022-08-27T13:40:08;8.25;;;5.72;;
47089;SDS011;32840;52.516;13.294;2022-08-27T13:42:54;12.93;;;6.38;;
47089;SDS011;32840;52.516;13.294;2022-08-27T13:45:41;8.23;;;5.82;;
47089;SDS011;32840;52.516;13.294;2022-08-27T13:48:31;7.70;;;5.97;;
47089;SDS011;32840;52.516;13.294;2022-08-27T13:51:22;7.95;;;5.28;;
47089;SDS011;32840;52.516;13.294;2022-08-27T13:54:11;7.97;;;6.05;;
47089;SDS011;32840;52.516;13.294;2022-08-27T13:56:58;8.65;;;5.50;;
47089;SDS011;32840;52.516;13.294;2022-08-27T13:59:47;9.38;;;6.38;;
47089;SDS011;32840;52.516;13.294;2022-08-27T14:02:31;7.47;;;5.15;;
47089;SDS011;32840;52.516;13.294;2022-08-27T14:08:13;5.03;;;4.13;;
47089;SDS011;32840;52.516;13.294;2022-08-27T14:11:02;7.38;;;4.65;;
47089;SDS011;32840;52.516;13.294;2022-08-27T14:13:53;7.03;;;4.65;;
47089;SDS011;32840;52.516;13.294;2022-08-27T14:16:42;8.60;;;4.90;;
47089;SDS011;32840;52.516;13.294;2022-08-27T14:19:29;6.55;;;5.75;;
47089;SDS011;32840;52.516;13.294;2022-08-27T14:22:15;8.75;;;5.70;;
47089;SDS011;32840;52.516;13.294;2022-08-27T14:25:00;7.97;;;5.72;;
47089;SDS011;32840;52.516;13.294;2022-08-27T14:27:46;10.10;;;5.78;;
47089;SDS011;32840;52.516;13.294;2022-08-27T14:30:33;18.00;;;8.52;;
47089;SDS011;32840;52.516;13.294;2022-08-27T14:33:18;14.63;;;8.38;;
47089;SDS011;32840;52.516;13.294;2022-08-27T14:36:04;13.05;;;7.38;;
47089;SDS011;32840;52.516;13.294;2022-08-27T14:38:50;16.50;;;8.23;;
47089;SDS011;32840;52.516;13.294;2022-08-27T14:41:35;25.35;;;12.25;;
47089;SDS011;32840;52.516;13.294;2022-08-27T14:44:20;12.82;;;9.88;;
47089;SDS011;32840;52.516;13.294;2022-08-27T14:47:06;15.63;;;10.57;;
47089;SDS011;32840;52.516;13.294;2022-08-27T14:49:54;22.17;;;14.85;;
47089;SDS011;32840;52.516;13.294;2022-08-27T14:52:39;22.98;;;16.90;;
47089;SDS011;32840;52.516;13.294;2022-08-27T14:55:23;11.95;;;9.52;;
47089;SDS011;32840;52.516;13.294;2022-08-27T14:58:08;15.23;;;10.77;;
47089;SDS011;32840;52.516;13.294;2022-08-27T15:00:54;13.57;;;9.10;;
47089;SDS011;32840;52.516;13.294;2022-08-27T15:03:45;11.30;;;9.32;;
47089;SDS011;32840;52.516;13.294;2022-08-27T15:06:31;15.50;;;11.75;;
47089;SDS011;32840;52.516;13.294;2022-08-27T15:09:16;17.65;;;13.60;;
47089;SDS011;32840;52.516;13.294;2022-08-27T15:12:01;27.58;;;22.50;;
47089;SDS011;32840;52.516;13.294;2022-08-27T15:14:47;14.90;;;10.52;;
47089;SDS011;32840;52.516;13.294;2022-08-27T15:17:32;12.68;;;10.40;;
47089;SDS011;32840;52.516;13.294;2022-08-27T15:20:17;11.27;;;8.65;;
47089;SDS011;32840;52.516;13.294;2022-08-27T15:23:02;12.18;;;8.57;;
47089;SDS011;32840;52.516;13.294;2022-08-27T15:25:47;11.40;;;8.75;;
47089;SDS011;32840;52.516;13.294;2022-08-27T15:28:33;14.23;;;11.07;;
47089;SDS011;32840;52.516;13.294;2022-08-27T15:31:18;19.90;;;17.67;;
47089;SDS011;32840;52.516;13.294;2022-08-27T15:34:03;10.65;;;8.77;;
47089;SDS011;32840;52.516;13.294;2022-08-27T15:36:48;9.02;;;7.22;;
47089;SDS011;32840;52.516;13.294;2022-08-27T15:39:33;12.95;;;10.40;;
47089;SDS011;32840;52.516;13.294;2022-08-27T15:42:18;10.35;;;8.40;;
47089;SDS011;32840;52.516;13.294;2022-08-27T15:45:03;25.05;;;21.98;;
47089;SDS011;32840;52.516;13.294;2022-08-27T15:47:49;8.35;;;7.55;;
47089;SDS011;32840;52.516;13.294;2022-08-27T15:50:33;11.18;;;7.70;;
47089;SDS011;32840;52.516;13.294;2022-08-27T15:53:20;7.32;;;6.38;;
47089;SDS011;32840;52.516;13.294;2022-08-27T15:56:08;7.93;;;6.72;;
47089;SDS011;32840;52.516;13.294;2022-08-27T15:58:53;9.73;;;6.15;;
47089;SDS011;32840;52.516;13.294;2022-08-27T16:01:38;7.80;;;5.97;;
47089;SDS011;32840;52.516;13.294;2022-08-27T16:04:23;6.43;;;5.70;;
47089;SDS011;32840;52.516;13.294;2022-08-27T16:07:08;7.50;;;6.05;;
47089;SDS011;32840;52.516;13.294;2022-08-27T16:09:53;7.40;;;5.85;;
47089;SDS011;32840;52.516;13.294;2022-08-27T16:12:37;8.07;;;5.25;;
47089;SDS011;32840;52.516;13.294;2022-08-27T16:15:22;6.60;;;4.97;;
47089;SDS011;32840;52.516;13.294;2022-08-27T16:18:07;7.32;;;5.80;;
47089;SDS011;32840;52.516;13.294;2022-08-27T16:20:53;8.02;;;5.22;;
47089;SDS011;32840;52.516;13.294;2022-08-27T16:23:39;11.35;;;6.38;;
47089;SDS011;32840;52.516;13.294;2022-08-27T16:26:24;9.32;;;5.63;;
47089;SDS011;32840;52.516;13.294;2022-08-27T16:29:09;8.45;;;5.32;;
47089;SDS011;32840;52.516;13.294;2022-08-27T16:31:54;9.07;;;5.50;;
47089;SDS011;32840;52.516;13.294;2022-08-27T16:34:39;5.38;;;3.50;;
47089;SDS011;32840;52.516;13.294;2022-08-27T16:37:24;5.50;;;4.32;;
47089;SDS011;32840;52.516;13.294;2022-08-27T16:40:10;5.72;;;4.30;;
47089;SDS011;32840;52.516;13.294;2022-08-27T16:42:56;5.50;;;3.38;;
47089;SDS011;32840;52.516;13.294;2022-08-27T16:45:42;6.03;;;3.55;;
47089;SDS011;32840;52.516;13.294;2022-08-27T16:48:26;5.00;;;2.80;;
47089;SDS011;32840;52.516;13.294;2022-08-27T16:51:32;4.95;;;3.10;;
47089;SDS011;32840;52.516;13.294;2022-08-27T16:54:18;4.82;;;3.33;;
47089;SDS011;32840;52.516;13.294;2022-08-27T16:57:03;4.82;;;2.95;;
47089;SDS011;32840;52.516;13.294;2022-08-27T16:59:48;5.70;;;3.25;;
47089;SDS011;32840;52.516;13.294;2022-08-27T17:02:33;6.00;;;3.97;;
47089;SDS011;32840;52.516;13.294;2022-08-27T17:05:19;5.13;;;3.80;;
47089;SDS011;32840;52.516;13.294;2022-08-27T17:08:05;8.35;;;4.72;;
47089;SDS011;32840;52.516;13.294;2022-08-27T17:10:51;5.15;;;3.92;;
47089;SDS011;32840;52.516;13.294;2022-08-27T17:13:37;7.05;;;3.50;;
47089;SDS011;32840;52.516;13.294;2022-08-27T17:16:23;7.82;;;4.05;;
47089;SDS011;32840;52.516;13.294;2022-08-27T17:19:12;5.97;;;5.15;;
47089;SDS011;32840;52.516;13.294;2022-08-27T17:21:58;7.80;;;4.82;;
47089;SDS011;32840;52.516;13.294;2022-08-27T17:24:44;11.15;;;5.07;;
47089;SDS011;32840;52.516;13.294;2022-08-27T17:27:29;5.95;;;4.22;;